Accueil
METAR-TAF:

METAR-TAF

Aéroports :

Aéroport international de Bagdad

Bagdad, Irak

latitude: 33-15-45N, longitude: 44-14-04E, altitude: 35 m

Observation

Le bulletin a été fait il y a 15 minutes, à 22:00 UTC
Vent 8 kt de nord-ouest
Température 14°C
Humidité 72%
Pression 1011 hPa
Visibilité 10 km ou plus
pas de nuages en-dessous de 1500 mètres et pas de cumulonimbus.

METAR: ORBI 192200Z 31008KT CAVOK 14/09 Q1011 NOSIG

Heure: 01:15 (22:15 UTC)

Prévision

Le bulletin a été fait il y a 6 heures et 15 minutes, à 16:00 UTC
Prévision valable du 19 à 18 UTC au 20 à 18 UTC
Vent 12 kt de nord-ouest
Visibilité: 8000 m
Nuages épars à une hauteur de 3000 ft
Nuages fragmentés à une hauteur de 10000 ft

TAF: ORBI 191600Z 1918/2018 32012KT 8000 SCT030 BKN100

Observations et prévisions météorologiques de plus de 4000 aéroports (messages METAR et TAF).

Les stations disponibles sont représentées par des disques jaunes et rouges sur la carte.

Passer la souris dessus pour voir le nom de la station.

Cliquer dessus pour voir les observations et prévisions météorologiques.

Pour changer de carte: cliquez sur les boutons verts avec une croix noire pour zoomer, sur le bouton vert avec un tiret pour effectuer un zoom arrière, ou sur les flèches vertes pour les cartes adjacentes.


METAR-TAF: